This is the latest recevied weather packets stored in our database for station/object KK4WXG. If no packets are shown the sender has not sent any weather packets the latest 1 day(s).
| Time | Temp. | Humidity | Pressure | Rain* | Wind** | Luminosity | Snow |
|---|---|---|---|---|---|---|---|
| 1778012471 | 27.22° C | 33% | 1008.1 hPa | 0 mm | 5.36 m/s, 216° | 491 W/m² | - |
| 1778012167 | 27.22° C | 32% | 1008 hPa | 0 mm | 5.81 m/s, 204° | 426 W/m² | - |
| 1778011865 | 27.78° C | 34% | 1008.1 hPa | 0 mm | 3.58 m/s, 211° | 539 W/m² | - |
| 1778011563 | 27.78° C | 32% | 1007.9 hPa | 0 mm | 6.26 m/s, 218° | 659 W/m² | - |
| 1778011260 | 27.78° C | 33% | 1008.1 hPa | 0 mm | 3.13 m/s, 189° | 651 W/m² | - |
| 1778010955 | 28.33° C | 33% | 1008.1 hPa | 0 mm | 8.49 m/s, 217° | 668 W/m² | - |
| 1778010653 | 27.78° C | 33% | 1008.2 hPa | 0 mm | 5.36 m/s, 173° | 732 W/m² | - |
| 1778010350 | 27.78° C | 33% | 1008 hPa | 0 mm | 6.26 m/s, 204° | 750 W/m² | - |
| 1778010046 | 28.33° C | 33% | 1008 hPa | 0 mm | 8.49 m/s, 208° | 780 W/m² | - |
| 1778009743 | 27.78° C | 34% | 1008.3 hPa | 0 mm | 4.47 m/s, 158° | 769 W/m² | - |
| 1778009440 | 27.78° C | 36% | 1008.2 hPa | 0 mm | 7.15 m/s, 215° | 755 W/m² | - |
| 1778009139 | 27.78° C | 35% | 1008.6 hPa | 0 mm | 6.71 m/s, 205° | 780 W/m² | - |
| 1778008836 | 27.78° C | 36% | 1008.5 hPa | 0 mm | 2.24 m/s, 183° | 811 W/m² | - |
| 1778008534 | 27.78° C | 36% | 1008.3 hPa | 0 mm | 5.81 m/s, 206° | 837 W/m² | - |
| 1778008232 | 27.78° C | 35% | 1008.4 hPa | 0 mm | 7.15 m/s, 207° | 788 W/m² | - |
| 1778007936 | 27.78° C | 36% | 1008.8 hPa | 0 mm | 3.13 m/s, 204° | 776 W/m² | - |
| 1778007628 | 27.78° C | 35% | 1008.8 hPa | 0 mm | 4.02 m/s, 171° | 660 W/m² | - |
| 1778007325 | 27.78° C | 37% | 1008.8 hPa | 0 mm | 4.92 m/s, 209° | 761 W/m² | - |
| 1778007021 | 27.78° C | 36% | 1008.8 hPa | 0 mm | 4.92 m/s, 202° | 818 W/m² | - |
| 1778006718 | 27.78° C | 38% | 1008.9 hPa | 0 mm | 1.79 m/s, 199° | 877 W/m² | - |
| 1778006415 | 27.78° C | 35% | 1009.1 hPa | 0 mm | 7.15 m/s, 212° | 888 W/m² | - |
| 1778006112 | 27.78° C | 40% | 1009.2 hPa | 0 mm | 3.58 m/s, 216° | 858 W/m² | - |
| 1778005809 | 27.22° C | 36% | 1009.2 hPa | 0 mm | 4.02 m/s, 225° | 877 W/m² | - |
| 1778005506 | 27.22° C | 37% | 1009.4 hPa | 0 mm | 4.92 m/s, 196° | 886 W/m² | - |
| 1778005202 | 27.22° C | 38% | 1009.3 hPa | 0 mm | 4.92 m/s, 201° | 905 W/m² | - |
* Rain latest hour (hover to see other rain measurements)
** Current wind speed in m/s (hover to see current wind gust speed)